sensor_id;sensor_type;location;lat;lon;timestamp;pressure;altitude;pressure_sealevel;temperature;humidity
6851;BME280;3464;42.728;23.296;2024-01-15T00:00:05;94680.14;;;7.37;43.33
6851;BME280;3464;42.728;23.296;2024-01-15T00:02:33;94688.47;;;7.34;43.18
6851;BME280;3464;42.728;23.296;2024-01-15T00:04:59;94693.08;;;7.38;43.28
6851;BME280;3464;42.728;23.296;2024-01-15T00:07:26;94684.72;;;7.37;43.08
6851;BME280;3464;42.728;23.296;2024-01-15T00:09:52;94688.52;;;7.38;42.96
6851;BME280;3464;42.728;23.296;2024-01-15T00:12:19;94677.56;;;7.31;43.36
6851;BME280;3464;42.728;23.296;2024-01-15T00:14:45;94687.39;;;7.52;43.22
6851;BME280;3464;42.728;23.296;2024-01-15T00:17:12;94687.38;;;7.51;43.04
6851;BME280;3464;42.728;23.296;2024-01-15T00:19:38;94690.38;;;7.56;42.97
6851;BME280;3464;42.728;23.296;2024-01-15T00:22:06;94680.68;;;7.48;42.95
6851;BME280;3464;42.728;23.296;2024-01-15T00:24:32;94687.30;;;7.43;42.84
6851;BME280;3464;42.728;23.296;2024-01-15T00:26:59;94683.20;;;7.49;42.85
6851;BME280;3464;42.728;23.296;2024-01-15T00:29:25;94688.98;;;7.45;42.81
6851;BME280;3464;42.728;23.296;2024-01-15T00:31:52;94692.81;;;7.14;43.42
6851;BME280;3464;42.728;23.296;2024-01-15T00:34:20;94684.16;;;7.24;42.86
6851;BME280;3464;42.728;23.296;2024-01-15T00:36:47;94690.97;;;7.34;42.85
6851;BME280;3464;42.728;23.296;2024-01-15T00:39:13;94690.50;;;7.31;42.78
6851;BME280;3464;42.728;23.296;2024-01-15T00:41:40;94687.30;;;7.08;43.21
6851;BME280;3464;42.728;23.296;2024-01-15T00:44:06;94684.42;;;7.10;43.43
6851;BME280;3464;42.728;23.296;2024-01-15T00:46:33;94683.89;;;7.03;43.48
6851;BME280;3464;42.728;23.296;2024-01-15T00:48:59;94684.75;;;7.37;42.90
6851;BME280;3464;42.728;23.296;2024-01-15T00:51:26;94684.34;;;7.41;42.71
6851;BME280;3464;42.728;23.296;2024-01-15T00:53:52;94686.93;;;7.46;42.59
6851;BME280;3464;42.728;23.296;2024-01-15T00:56:19;94678.84;;;7.35;43.01
6851;BME280;3464;42.728;23.296;2024-01-15T00:58:45;94678.11;;;7.42;42.65
6851;BME280;3464;42.728;23.296;2024-01-15T01:01:12;94678.41;;;7.31;42.83
6851;BME280;3464;42.728;23.296;2024-01-15T01:03:38;94679.80;;;7.08;43.50
6851;BME280;3464;42.728;23.296;2024-01-15T01:06:05;94681.98;;;7.17;43.14
6851;BME280;3464;42.728;23.296;2024-01-15T01:08:32;94679.68;;;7.34;42.85
6851;BME280;3464;42.728;23.296;2024-01-15T01:10:58;94678.67;;;7.19;43.26
6851;BME280;3464;42.728;23.296;2024-01-15T01:13:25;94677.03;;;7.21;43.27
6851;BME280;3464;42.728;23.296;2024-01-15T01:15:51;94675.14;;;7.39;43.07
6851;BME280;3464;42.728;23.296;2024-01-15T01:18:18;94675.06;;;7.31;43.28
6851;BME280;3464;42.728;23.296;2024-01-15T01:20:44;94676.72;;;7.30;43.09
6851;BME280;3464;42.728;23.296;2024-01-15T01:23:11;94673.91;;;7.41;42.84
6851;BME280;3464;42.728;23.296;2024-01-15T01:25:38;94672.27;;;7.43;42.82
6851;BME280;3464;42.728;23.296;2024-01-15T01:28:04;94668.56;;;7.48;42.65
6851;BME280;3464;42.728;23.296;2024-01-15T01:30:31;94664.03;;;7.53;42.51
6851;BME280;3464;42.728;23.296;2024-01-15T01:32:57;94645.06;;;7.36;42.66
6851;BME280;3464;42.728;23.296;2024-01-15T01:35:24;94662.32;;;7.49;42.77
6851;BME280;3464;42.728;23.296;2024-01-15T01:37:52;94656.92;;;7.49;42.75
6851;BME280;3464;42.728;23.296;2024-01-15T01:40:18;94650.59;;;7.43;42.56
6851;BME280;3464;42.728;23.296;2024-01-15T01:42:45;94652.63;;;7.38;42.70
6851;BME280;3464;42.728;23.296;2024-01-15T01:45:11;94648.70;;;7.23;43.18
6851;BME280;3464;42.728;23.296;2024-01-15T01:47:39;94655.52;;;7.38;42.83
6851;BME280;3464;42.728;23.296;2024-01-15T01:50:05;94643.52;;;7.48;42.79
6851;BME280;3464;42.728;23.296;2024-01-15T01:52:32;94648.41;;;7.34;42.99
6851;BME280;3464;42.728;23.296;2024-01-15T01:54:59;94642.21;;;7.41;42.67
6851;BME280;3464;42.728;23.296;2024-01-15T01:57:25;94644.27;;;7.39;42.64
6851;BME280;3464;42.728;23.296;2024-01-15T01:59:52;94639.08;;;7.23;42.53
6851;BME280;3464;42.728;23.296;2024-01-15T02:02:18;94634.87;;;7.19;42.59
6851;BME280;3464;42.728;23.296;2024-01-15T02:04:45;94637.77;;;7.16;42.80
6851;BME280;3464;42.728;23.296;2024-01-15T02:07:11;94638.22;;;7.19;43.00
6851;BME280;3464;42.728;23.296;2024-01-15T02:09:38;94641.20;;;7.24;42.76
6851;BME280;3464;42.728;23.296;2024-01-15T02:12:06;94638.27;;;7.25;42.79
6851;BME280;3464;42.728;23.296;2024-01-15T02:14:33;94626.51;;;7.15;42.80
6851;BME280;3464;42.728;23.296;2024-01-15T02:16:59;94628.20;;;7.17;42.79
6851;BME280;3464;42.728;23.296;2024-01-15T02:19:26;94615.31;;;7.22;42.64
6851;BME280;3464;42.728;23.296;2024-01-15T02:21:53;94608.97;;;7.14;42.78
6851;BME280;3464;42.728;23.296;2024-01-15T02:24:19;94599.08;;;7.27;42.64
6851;BME280;3464;42.728;23.296;2024-01-15T02:26:46;94577.18;;;7.06;42.73
6851;BME280;3464;42.728;23.296;2024-01-15T02:29:13;94574.70;;;7.08;43.04
6851;BME280;3464;42.728;23.296;2024-01-15T02:31:40;94575.22;;;6.48;43.55
6851;BME280;3464;42.728;23.296;2024-01-15T02:34:06;94580.57;;;6.11;44.88
6851;BME280;3464;42.728;23.296;2024-01-15T02:36:33;94573.14;;;6.82;43.75
6851;BME280;3464;42.728;23.296;2024-01-15T02:39:00;94577.34;;;7.22;43.20
6851;BME280;3464;42.728;23.296;2024-01-15T02:41:26;94586.83;;;7.12;43.66
6851;BME280;3464;42.728;23.296;2024-01-15T02:43:53;94581.03;;;7.16;43.12
6851;BME280;3464;42.728;23.296;2024-01-15T02:46:19;94581.45;;;7.14;43.08
6851;BME280;3464;42.728;23.296;2024-01-15T02:48:46;94587.80;;;6.88;43.46
6851;BME280;3464;42.728;23.296;2024-01-15T02:51:12;94594.70;;;7.08;43.13
6851;BME280;3464;42.728;23.296;2024-01-15T02:53:39;94581.87;;;7.17;43.04
6851;BME280;3464;42.728;23.296;2024-01-15T02:56:06;94587.42;;;6.90;43.63
6851;BME280;3464;42.728;23.296;2024-01-15T02:58:32;94583.34;;;6.99;43.58
6851;BME280;3464;42.728;23.296;2024-01-15T03:00:59;94580.77;;;6.90;43.75
6851;BME280;3464;42.728;23.296;2024-01-15T03:03:25;94576.17;;;6.89;43.42
6851;BME280;3464;42.728;23.296;2024-01-15T03:05:52;94581.05;;;7.17;42.86
6851;BME280;3464;42.728;23.296;2024-01-15T03:08:19;94580.94;;;7.06;42.77
6851;BME280;3464;42.728;23.296;2024-01-15T03:10:46;94578.55;;;6.79;43.15
6851;BME280;3464;42.728;23.296;2024-01-15T03:13:12;94578.77;;;6.99;43.10
6851;BME280;3464;42.728;23.296;2024-01-15T03:15:39;94571.37;;;7.08;42.84
6851;BME280;3464;42.728;23.296;2024-01-15T03:18:06;94568.96;;;7.17;42.64
6851;BME280;3464;42.728;23.296;2024-01-15T03:20:33;94562.52;;;7.01;42.80
6851;BME280;3464;42.728;23.296;2024-01-15T03:22:59;94566.72;;;7.02;42.86
6851;BME280;3464;42.728;23.296;2024-01-15T03:25:26;94565.05;;;7.02;42.75
6851;BME280;3464;42.728;23.296;2024-01-15T03:27:52;94557.05;;;6.95;42.91
6851;BME280;3464;42.728;23.296;2024-01-15T03:30:19;94553.20;;;7.28;42.69
6851;BME280;3464;42.728;23.296;2024-01-15T03:32:46;94554.48;;;7.30;42.47
6851;BME280;3464;42.728;23.296;2024-01-15T03:35:13;94553.91;;;7.12;42.65
6851;BME280;3464;42.728;23.296;2024-01-15T03:37:41;94556.70;;;7.03;42.94
6851;BME280;3464;42.728;23.296;2024-01-15T03:40:08;94561.16;;;7.31;42.76
6851;BME280;3464;42.728;23.296;2024-01-15T03:42:35;94555.80;;;7.36;42.58
6851;BME280;3464;42.728;23.296;2024-01-15T03:45:01;94560.06;;;7.48;42.58
6851;BME280;3464;42.728;23.296;2024-01-15T03:47:28;94560.64;;;7.67;42.09
6851;BME280;3464;42.728;23.296;2024-01-15T03:49:56;94558.77;;;7.94;41.55
6851;BME280;3464;42.728;23.296;2024-01-15T03:52:24;94556.16;;;7.80;41.96
6851;BME280;3464;42.728;23.296;2024-01-15T03:54:54;94561.61;;;7.81;42.04
6851;BME280;3464;42.728;23.296;2024-01-15T03:57:21;94555.27;;;7.72;42.35
6851;BME280;3464;42.728;23.296;2024-01-15T03:59:48;94552.94;;;7.96;41.65
6851;BME280;3464;42.728;23.296;2024-01-15T04:02:14;94540.21;;;9.44;39.47
6851;BME280;3464;42.728;23.296;2024-01-15T04:04:42;94533.92;;;9.52;39.34
6851;BME280;3464;42.728;23.296;2024-01-15T04:07:08;94531.06;;;8.35;40.55
6851;BME280;3464;42.728;23.296;2024-01-15T04:09:34;94521.69;;;8.87;40.47
6851;BME280;3464;42.728;23.296;2024-01-15T04:12:01;94529.60;;;8.02;41.15
6851;BME280;3464;42.728;23.296;2024-01-15T04:14:27;94537.06;;;7.94;41.24
6851;BME280;3464;42.728;23.296;2024-01-15T04:17:01;94537.36;;;7.79;41.62
6851;BME280;3464;42.728;23.296;2024-01-15T04:19:32;94539.33;;;7.62;41.76
6851;BME280;3464;42.728;23.296;2024-01-15T04:22:02;94537.25;;;7.62;41.65
6851;BME280;3464;42.728;23.296;2024-01-15T04:24:32;94533.17;;;7.76;41.74
6851;BME280;3464;42.728;23.296;2024-01-15T04:26:58;94536.02;;;7.68;41.43
6851;BME280;3464;42.728;23.296;2024-01-15T04:29:25;94529.01;;;7.79;41.35
6851;BME280;3464;42.728;23.296;2024-01-15T04:31:52;94519.45;;;7.84;41.32
6851;BME280;3464;42.728;23.296;2024-01-15T04:34:19;94527.55;;;8.07;40.85
6851;BME280;3464;42.728;23.296;2024-01-15T04:36:46;94524.17;;;8.05;40.72
6851;BME280;3464;42.728;23.296;2024-01-15T04:39:15;94534.53;;;7.90;40.65
6851;BME280;3464;42.728;23.296;2024-01-15T04:41:42;94530.42;;;8.02;40.66
6851;BME280;3464;42.728;23.296;2024-01-15T04:44:08;94521.13;;;7.84;40.70
6851;BME280;3464;42.728;23.296;2024-01-15T04:46:35;94526.31;;;7.52;41.14
6851;BME280;3464;42.728;23.296;2024-01-15T04:49:01;94520.20;;;7.71;40.83
6851;BME280;3464;42.728;23.296;2024-01-15T04:51:29;94528.20;;;7.74;40.64
6851;BME280;3464;42.728;23.296;2024-01-15T04:53:55;94525.16;;;7.65;40.87
6851;BME280;3464;42.728;23.296;2024-01-15T04:56:24;94515.20;;;7.74;40.84
6851;BME280;3464;42.728;23.296;2024-01-15T04:58:50;94512.30;;;7.24;41.63
6851;BME280;3464;42.728;23.296;2024-01-15T05:01:17;94517.59;;;7.61;41.30
6851;BME280;3464;42.728;23.296;2024-01-15T05:03:44;94518.09;;;7.70;41.04
6851;BME280;3464;42.728;23.296;2024-01-15T05:06:10;94518.34;;;7.47;41.57
6851;BME280;3464;42.728;23.296;2024-01-15T05:08:37;94512.86;;;7.42;41.60
6851;BME280;3464;42.728;23.296;2024-01-15T05:11:03;94503.31;;;7.47;41.56
6851;BME280;3464;42.728;23.296;2024-01-15T05:13:30;94508.88;;;7.16;41.75
6851;BME280;3464;42.728;23.296;2024-01-15T05:15:57;94501.23;;;7.00;42.63
6851;BME280;3464;42.728;23.296;2024-01-15T05:18:23;94502.92;;;7.49;41.65
6851;BME280;3464;42.728;23.296;2024-01-15T05:20:50;94510.76;;;7.40;41.83
6851;BME280;3464;42.728;23.296;2024-01-15T05:23:16;94512.61;;;7.59;41.65
6851;BME280;3464;42.728;23.296;2024-01-15T05:25:43;94503.45;;;7.64;41.42
6851;BME280;3464;42.728;23.296;2024-01-15T05:28:09;94507.61;;;7.65;41.49
6851;BME280;3464;42.728;23.296;2024-01-15T05:30:36;94501.99;;;7.98;41.10
6851;BME280;3464;42.728;23.296;2024-01-15T05:33:03;94491.16;;;8.01;41.14
6851;BME280;3464;42.728;23.296;2024-01-15T05:35:29;94488.45;;;8.33;40.76
6851;BME280;3464;42.728;23.296;2024-01-15T05:37:56;94481.30;;;8.30;40.68
6851;BME280;3464;42.728;23.296;2024-01-15T05:40:24;94481.34;;;8.37;40.68
6851;BME280;3464;42.728;23.296;2024-01-15T05:42:51;94485.52;;;8.32;40.33
6851;BME280;3464;42.728;23.296;2024-01-15T05:45:18;94478.70;;;8.16;40.48
6851;BME280;3464;42.728;23.296;2024-01-15T05:47:45;94477.43;;;8.13;40.73
6851;BME280;3464;42.728;23.296;2024-01-15T05:53:14;94465.72;;;8.05;40.57
6851;BME280;3464;42.728;23.296;2024-01-15T05:55:41;94467.27;;;7.86;40.89
6851;BME280;3464;42.728;23.296;2024-01-15T05:58:07;94470.13;;;7.78;41.35
6851;BME280;3464;42.728;23.296;2024-01-15T06:00:34;94480.62;;;7.86;41.43
6851;BME280;3464;42.728;23.296;2024-01-15T06:03:00;94490.80;;;8.12;41.15
6851;BME280;3464;42.728;23.296;2024-01-15T06:05:27;94494.53;;;8.07;41.08
6851;BME280;3464;42.728;23.296;2024-01-15T06:07:54;94494.14;;;8.11;41.06
6851;BME280;3464;42.728;23.296;2024-01-15T06:10:20;94486.22;;;8.12;41.09
6851;BME280;3464;42.728;23.296;2024-01-15T06:12:47;94485.47;;;8.23;40.79
6851;BME280;3464;42.728;23.296;2024-01-15T06:15:13;94470.03;;;8.27;40.59
6851;BME280;3464;42.728;23.296;2024-01-15T06:17:40;94476.72;;;8.29;40.73
6851;BME280;3464;42.728;23.296;2024-01-15T06:20:07;94471.31;;;8.34;40.59
6851;BME280;3464;42.728;23.296;2024-01-15T06:22:34;94463.80;;;8.39;40.72
6851;BME280;3464;42.728;23.296;2024-01-15T06:25:01;94452.11;;;8.45;40.56
6851;BME280;3464;42.728;23.296;2024-01-15T06:27:28;94458.12;;;8.94;39.93
6851;BME280;3464;42.728;23.296;2024-01-15T06:29:54;94462.30;;;8.91;40.09
6851;BME280;3464;42.728;23.296;2024-01-15T06:32:21;94468.99;;;9.05;40.04
6851;BME280;3464;42.728;23.296;2024-01-15T06:34:48;94475.72;;;9.16;40.12
6851;BME280;3464;42.728;23.296;2024-01-15T06:37:14;94477.83;;;9.64;39.54
6851;BME280;3464;42.728;23.296;2024-01-15T06:39:41;94470.72;;;9.35;39.50
6851;BME280;3464;42.728;23.296;2024-01-15T06:42:10;94466.02;;;10.24;38.77
6851;BME280;3464;42.728;23.296;2024-01-15T06:44:36;94451.28;;;10.42;38.53
6851;BME280;3464;42.728;23.296;2024-01-15T06:47:03;94466.85;;;10.23;37.99
6851;BME280;3464;42.728;23.296;2024-01-15T06:49:31;94462.57;;;10.46;38.45
6851;BME280;3464;42.728;23.296;2024-01-15T06:51:57;94462.52;;;10.63;37.75
6851;BME280;3464;42.728;23.296;2024-01-15T06:54:24;94465.14;;;10.33;37.68
6851;BME280;3464;42.728;23.296;2024-01-15T06:56:51;94476.85;;;10.40;37.88
6851;BME280;3464;42.728;23.296;2024-01-15T06:59:18;94480.67;;;10.29;38.44
6851;BME280;3464;42.728;23.296;2024-01-15T07:01:45;94482.66;;;10.56;38.01
6851;BME280;3464;42.728;23.296;2024-01-15T07:04:13;94483.41;;;10.76;37.70
6851;BME280;3464;42.728;23.296;2024-01-15T07:06:39;94484.56;;;10.97;37.64
6851;BME280;3464;42.728;23.296;2024-01-15T07:09:06;94469.59;;;10.75;37.46
6851;BME280;3464;42.728;23.296;2024-01-15T07:11:32;94470.81;;;10.82;37.20
6851;BME280;3464;42.728;23.296;2024-01-15T07:13:59;94469.23;;;10.62;37.37
6851;BME280;3464;42.728;23.296;2024-01-15T07:16:25;94475.14;;;10.52;37.43
6851;BME280;3464;42.728;23.296;2024-01-15T07:18:52;94481.90;;;10.34;37.79
6851;BME280;3464;42.728;23.296;2024-01-15T07:21:18;94481.94;;;10.24;38.05
6851;BME280;3464;42.728;23.296;2024-01-15T07:23:45;94482.09;;;10.90;37.36
6851;BME280;3464;42.728;23.296;2024-01-15T07:26:11;94473.70;;;10.92;37.10
6851;BME280;3464;42.728;23.296;2024-01-15T07:28:38;94467.86;;;10.84;37.42
6851;BME280;3464;42.728;23.296;2024-01-15T07:31:04;94463.37;;;10.61;37.52
6851;BME280;3464;42.728;23.296;2024-01-15T07:33:31;94470.09;;;10.60;37.75
6851;BME280;3464;42.728;23.296;2024-01-15T07:35:58;94455.76;;;10.75;37.82
6851;BME280;3464;42.728;23.296;2024-01-15T07:38:24;94462.33;;;10.98;37.34
6851;BME280;3464;42.728;23.296;2024-01-15T07:40:51;94459.59;;;10.60;37.82
6851;BME280;3464;42.728;23.296;2024-01-15T07:43:20;94461.59;;;10.81;37.77
6851;BME280;3464;42.728;23.296;2024-01-15T07:45:46;94461.70;;;11.28;36.98
6851;BME280;3464;42.728;23.296;2024-01-15T07:48:13;94477.34;;;11.12;36.79
6851;BME280;3464;42.728;23.296;2024-01-15T07:50:39;94476.24;;;10.88;37.58
6851;BME280;3464;42.728;23.296;2024-01-15T07:53:06;94465.92;;;11.27;37.29
6851;BME280;3464;42.728;23.296;2024-01-15T07:55:32;94467.16;;;11.26;37.22
6851;BME280;3464;42.728;23.296;2024-01-15T07:57:59;94457.48;;;11.85;36.55
6851;BME280;3464;42.728;23.296;2024-01-15T08:00:26;94438.70;;;11.17;36.80
6851;BME280;3464;42.728;23.296;2024-01-15T08:02:52;94445.34;;;11.27;36.91
6851;BME280;3464;42.728;23.296;2024-01-15T08:05:19;94450.08;;;11.69;36.72
6851;BME280;3464;42.728;23.296;2024-01-15T08:07:45;94452.03;;;12.61;35.87
6851;BME280;3464;42.728;23.296;2024-01-15T08:10:12;94464.42;;;13.15;35.31
6851;BME280;3464;42.728;23.296;2024-01-15T08:12:38;94459.91;;;13.61;34.76
6851;BME280;3464;42.728;23.296;2024-01-15T08:15:05;94464.11;;;13.88;34.54
6851;BME280;3464;42.728;23.296;2024-01-15T08:17:32;94455.13;;;14.18;33.87
6851;BME280;3464;42.728;23.296;2024-01-15T08:19:58;94461.22;;;14.76;33.22
6851;BME280;3464;42.728;23.296;2024-01-15T08:22:25;94459.26;;;14.89;32.91
6851;BME280;3464;42.728;23.296;2024-01-15T08:24:51;94464.83;;;15.24;32.70
6851;BME280;3464;42.728;23.296;2024-01-15T08:27:18;94460.95;;;15.65;32.57
6851;BME280;3464;42.728;23.296;2024-01-15T08:29:45;94454.51;;;15.69;32.02
6851;BME280;3464;42.728;23.296;2024-01-15T08:32:11;94450.43;;;15.98;32.08
6851;BME280;3464;42.728;23.296;2024-01-15T08:34:38;94452.13;;;15.07;32.11
6851;BME280;3464;42.728;23.296;2024-01-15T08:37:05;94449.91;;;14.51;33.65
6851;BME280;3464;42.728;23.296;2024-01-15T08:39:31;94450.88;;;14.86;33.18
6851;BME280;3464;42.728;23.296;2024-01-15T08:41:58;94441.14;;;15.06;32.31
6851;BME280;3464;42.728;23.296;2024-01-15T08:44:25;94431.29;;;14.93;32.79
6851;BME280;3464;42.728;23.296;2024-01-15T08:46:52;94439.94;;;15.23;32.68
6851;BME280;3464;42.728;23.296;2024-01-15T08:49:19;94435.05;;;14.55;33.25
6851;BME280;3464;42.728;23.296;2024-01-15T08:51:47;94432.81;;;14.82;32.90
6851;BME280;3464;42.728;23.296;2024-01-15T08:54:13;94422.25;;;15.20;32.46
6851;BME280;3464;42.728;23.296;2024-01-15T08:56:40;94408.80;;;15.17;32.84
6851;BME280;3464;42.728;23.296;2024-01-15T08:59:06;94404.55;;;15.18;33.26
6851;BME280;3464;42.728;23.296;2024-01-15T09:01:33;94395.39;;;15.99;32.15
6851;BME280;3464;42.728;23.296;2024-01-15T09:03:59;94406.28;;;16.19;31.21
6851;BME280;3464;42.728;23.296;2024-01-15T09:06:27;94402.88;;;15.72;32.12
6851;BME280;3464;42.728;23.296;2024-01-15T09:08:53;94388.25;;;16.29;31.54
6851;BME280;3464;42.728;23.296;2024-01-15T09:11:20;94372.11;;;16.16;31.76
6851;BME280;3464;42.728;23.296;2024-01-15T09:13:46;94365.92;;;16.10;31.64
6851;BME280;3464;42.728;23.296;2024-01-15T09:16:13;94375.93;;;14.94;32.63
6851;BME280;3464;42.728;23.296;2024-01-15T09:18:39;94367.61;;;15.09;32.72
6851;BME280;3464;42.728;23.296;2024-01-15T09:21:06;94362.94;;;15.95;31.73
6851;BME280;3464;42.728;23.296;2024-01-15T09:23:32;94349.41;;;16.40;30.99
6851;BME280;3464;42.728;23.296;2024-01-15T09:25:59;94358.67;;;15.28;32.36
6851;BME280;3464;42.728;23.296;2024-01-15T09:28:26;94360.58;;;14.23;33.59
6851;BME280;3464;42.728;23.296;2024-01-15T09:30:53;94359.83;;;14.79;33.10
6851;BME280;3464;42.728;23.296;2024-01-15T09:33:19;94348.02;;;14.40;33.75
6851;BME280;3464;42.728;23.296;2024-01-15T09:35:46;94344.27;;;13.70;34.84
6851;BME280;3464;42.728;23.296;2024-01-15T09:38:12;94331.48;;;15.17;33.14
6851;BME280;3464;42.728;23.296;2024-01-15T09:40:39;94344.28;;;14.37;34.36
6851;BME280;3464;42.728;23.296;2024-01-15T09:43:05;94329.88;;;14.58;33.64
6851;BME280;3464;42.728;23.296;2024-01-15T09:45:34;94325.00;;;15.74;32.71
6851;BME280;3464;42.728;23.296;2024-01-15T09:48:00;94325.44;;;14.68;33.76
6851;BME280;3464;42.728;23.296;2024-01-15T09:50:27;94290.80;;;14.87;33.29
6851;BME280;3464;42.728;23.296;2024-01-15T09:52:58;94289.48;;;15.24;32.88
6851;BME280;3464;42.728;23.296;2024-01-15T09:55:24;94278.08;;;15.42;32.67
6851;BME280;3464;42.728;23.296;2024-01-15T09:57:51;94284.33;;;15.45;32.57
6851;BME280;3464;42.728;23.296;2024-01-15T10:00:17;94284.09;;;15.68;32.69
6851;BME280;3464;42.728;23.296;2024-01-15T10:02:44;94303.70;;;14.77;33.62
6851;BME280;3464;42.728;23.296;2024-01-15T10:05:10;94305.40;;;14.40;34.22
6851;BME280;3464;42.728;23.296;2024-01-15T10:07:37;94291.04;;;13.99;34.96
6851;BME280;3464;42.728;23.296;2024-01-15T10:10:04;94271.33;;;14.71;34.05
6851;BME280;3464;42.728;23.296;2024-01-15T10:12:30;94245.33;;;15.80;33.00
6851;BME280;3464;42.728;23.296;2024-01-15T10:14:58;94247.78;;;15.68;32.75
6851;BME280;3464;42.728;23.296;2024-01-15T10:17:24;94246.28;;;16.06;31.98
6851;BME280;3464;42.728;23.296;2024-01-15T10:19:51;94259.70;;;15.49;32.91
6851;BME280;3464;42.728;23.296;2024-01-15T10:22:17;94238.30;;;15.09;33.32
6851;BME280;3464;42.728;23.296;2024-01-15T10:24:44;94235.61;;;15.49;32.89
6851;BME280;3464;42.728;23.296;2024-01-15T10:27:10;94232.98;;;15.83;32.49
6851;BME280;3464;42.728;23.296;2024-01-15T10:29:37;94237.16;;;15.39;33.04
6851;BME280;3464;42.728;23.296;2024-01-15T10:32:08;94238.54;;;14.65;33.88
6851;BME280;3464;42.728;23.296;2024-01-15T10:34:37;94235.59;;;14.29;34.29
6851;BME280;3464;42.728;23.296;2024-01-15T10:37:01;94230.78;;;15.23;33.38
6851;BME280;3464;42.728;23.296;2024-01-15T10:39:27;94219.39;;;14.89;33.41
6851;BME280;3464;42.728;23.296;2024-01-15T10:41:54;94218.58;;;15.54;32.77
6851;BME280;3464;42.728;23.296;2024-01-15T10:44:20;94212.74;;;15.51;32.57
6851;BME280;3464;42.728;23.296;2024-01-15T10:46:50;94217.42;;;15.17;32.82
6851;BME280;3464;42.728;23.296;2024-01-15T10:49:16;94213.73;;;15.60;32.30
6851;BME280;3464;42.728;23.296;2024-01-15T10:51:43;94200.14;;;15.48;32.31
6851;BME280;3464;42.728;23.296;2024-01-15T10:54:09;94191.05;;;16.14;31.47
6851;BME280;3464;42.728;23.296;2024-01-15T10:56:36;94200.88;;;15.67;30.91
6851;BME280;3464;42.728;23.296;2024-01-15T10:59:03;94189.12;;;15.93;31.40
6851;BME280;3464;42.728;23.296;2024-01-15T11:01:30;94201.56;;;16.45;30.73
6851;BME280;3464;42.728;23.296;2024-01-15T11:03:56;94189.69;;;17.23;30.24
6851;BME280;3464;42.728;23.296;2024-01-15T11:06:23;94181.11;;;16.62;30.50
6851;BME280;3464;42.728;23.296;2024-01-15T11:08:49;94179.25;;;16.92;30.46
6851;BME280;3464;42.728;23.296;2024-01-15T11:11:16;94162.75;;;17.41;29.71
6851;BME280;3464;42.728;23.296;2024-01-15T11:13:43;94165.81;;;17.51;29.32
6851;BME280;3464;42.728;23.296;2024-01-15T11:16:11;94154.55;;;17.80;28.80
6851;BME280;3464;42.728;23.296;2024-01-15T11:18:40;94157.61;;;17.90;28.69
6851;BME280;3464;42.728;23.296;2024-01-15T11:21:23;94155.30;;;17.83;28.69
6851;BME280;3464;42.728;23.296;2024-01-15T11:23:50;94159.32;;;18.12;28.92
6851;BME280;3464;42.728;23.296;2024-01-15T11:28:54;94148.84;;;18.62;28.29
6851;BME280;3464;42.728;23.296;2024-01-15T11:31:25;94141.06;;;18.66;28.52
6851;BME280;3464;42.728;23.296;2024-01-15T11:33:49;94138.31;;;18.40;28.12
6851;BME280;3464;42.728;23.296;2024-01-15T11:36:20;94140.58;;;18.47;28.25
6851;BME280;3464;42.728;23.296;2024-01-15T11:38:47;94136.30;;;18.37;28.24
6851;BME280;3464;42.728;23.296;2024-01-15T11:41:14;94114.84;;;18.53;28.34
6851;BME280;3464;42.728;23.296;2024-01-15T11:43:46;94137.69;;;18.11;28.83
6851;BME280;3464;42.728;23.296;2024-01-15T11:46:26;94139.06;;;17.27;29.56
6851;BME280;3464;42.728;23.296;2024-01-15T11:48:53;94134.94;;;18.06;29.10
6851;BME280;3464;42.728;23.296;2024-01-15T11:51:19;94129.80;;;17.96;29.23
6851;BME280;3464;42.728;23.296;2024-01-15T11:53:47;94125.34;;;18.23;28.71
6851;BME280;3464;42.728;23.296;2024-01-15T11:56:15;94122.54;;;18.41;28.56
6851;BME280;3464;42.728;23.296;2024-01-15T11:58:46;94111.14;;;18.17;28.70
6851;BME280;3464;42.728;23.296;2024-01-15T12:04:22;94108.05;;;18.20;28.52
6851;BME280;3464;42.728;23.296;2024-01-15T12:06:49;94121.77;;;17.84;28.94
6851;BME280;3464;42.728;23.296;2024-01-15T12:09:18;94119.14;;;17.98;29.18
6851;BME280;3464;42.728;23.296;2024-01-15T12:11:43;94111.80;;;18.22;28.95
6851;BME280;3464;42.728;23.296;2024-01-15T12:14:12;94093.11;;;17.90;29.13
6851;BME280;3464;42.728;23.296;2024-01-15T12:16:40;94093.67;;;18.51;28.98
6851;BME280;3464;42.728;23.296;2024-01-15T12:19:06;94095.47;;;18.39;29.51
6851;BME280;3464;42.728;23.296;2024-01-15T12:21:33;94091.53;;;18.42;29.60
6851;BME280;3464;42.728;23.296;2024-01-15T12:24:00;94083.66;;;18.68;28.68
6851;BME280;3464;42.728;23.296;2024-01-15T12:26:26;94089.36;;;18.21;28.86
6851;BME280;3464;42.728;23.296;2024-01-15T12:28:53;94089.42;;;18.08;29.31
6851;BME280;3464;42.728;23.296;2024-01-15T12:31:19;94085.77;;;18.36;29.48
6851;BME280;3464;42.728;23.296;2024-01-15T12:33:46;94078.10;;;18.26;29.20
6851;BME280;3464;42.728;23.296;2024-01-15T12:36:13;94067.05;;;18.27;29.30
6851;BME280;3464;42.728;23.296;2024-01-15T12:38:39;94067.55;;;18.35;29.39
6851;BME280;3464;42.728;23.296;2024-01-15T12:41:06;94052.09;;;17.86;29.61
6851;BME280;3464;42.728;23.296;2024-01-15T12:43:35;94069.08;;;17.96;29.38
6851;BME280;3464;42.728;23.296;2024-01-15T12:46:02;94063.09;;;18.09;29.38
6851;BME280;3464;42.728;23.296;2024-01-15T12:48:28;94059.95;;;18.34;29.63
6851;BME280;3464;42.728;23.296;2024-01-15T12:50:55;94057.11;;;18.20;29.35
6851;BME280;3464;42.728;23.296;2024-01-15T12:53:22;94060.67;;;18.16;29.29
6851;BME280;3464;42.728;23.296;2024-01-15T12:55:48;94049.96;;;17.86;29.86
6851;BME280;3464;42.728;23.296;2024-01-15T12:58:15;94052.64;;;18.05;29.69
6851;BME280;3464;42.728;23.296;2024-01-15T13:00:41;94056.01;;;17.84;29.69
6851;BME280;3464;42.728;23.296;2024-01-15T13:03:08;94045.05;;;18.24;29.46
6851;BME280;3464;42.728;23.296;2024-01-15T13:05:34;94039.13;;;17.71;29.89
6851;BME280;3464;42.728;23.296;2024-01-15T13:08:08;94041.73;;;17.69;29.90
6851;BME280;3464;42.728;23.296;2024-01-15T13:10:35;94040.50;;;17.90;29.85
6851;BME280;3464;42.728;23.296;2024-01-15T13:13:01;94041.81;;;17.56;30.31
6851;BME280;3464;42.728;23.296;2024-01-15T13:15:29;94043.41;;;17.59;30.28
6851;BME280;3464;42.728;23.296;2024-01-15T13:17:55;94034.86;;;17.60;30.30
6851;BME280;3464;42.728;23.296;2024-01-15T13:20:22;94039.79;;;17.64;30.20
6851;BME280;3464;42.728;23.296;2024-01-15T13:22:49;94032.87;;;17.68;30.18